^^

..:: Metar reader and decoder ::..




OSSERVAZIONI E PREVISIONI METEOROLOGICHE DAGLI AEROPORTI ITALIANI
(messaggi METAR)

 


LIPX - Villafranca(Cv/M, Italy
Distanza dalla stazione: NNE 28km
Dati ricevuti: Mon, 06-Feb-2023 14:20
Molto nuvoloso
Molto nuvoloso
 Vento da E
Vento: E 7 km/h
Temperatura: 4°C
Temperatura del vento: 2°C
P.to di Rugiada: -3°C
Umidità: 61%
Barometro: 1033 hPa
Nuvole: Molto nuvoloso
Visibilità: 10 km
Dettaglio nuvole: Poco nuvoloso 914 m
Molto nuvoloso 1524 m
2023/02/06 13:20 LIPX 061320Z 09004KT 040V120 9999 FEW030 BKN050 04/M03 Q1033
LIPO - Brescia/Montichiari, Italy
Distanza dalla stazione: NO 38km
Dati ricevuti: Mon, 06-Feb-2023 14:20
Coperto
Coperto
 Vento da E
Vento: E 11 km/h
Temperatura: 5°C
Temperatura del vento: 2°C
P.to di Rugiada: -1°C
Umidità: 66%
Barometro: 1033 hPa
Nuvole: Coperto
Visibilità: 10 km
Dettaglio nuvole: Coperto 1402 m
2023/02/06 13:20 LIPO 061320Z AUTO 09006KT 9999 OVC046/// 05/M01 Q1033
 
LIPL - Ghedi (it-Afb), Italy
Distanza dalla stazione: NO 42km
Dati ricevuti: Mon, 06-Feb-2023 13:55
parzialmente nuvoloso
parzialmente nuvoloso
 Vento da E
Vento: E 13 km/h
Temperatura: 4°C
Temperatura del vento: 1°C
P.to di Rugiada: 1°C
Umidità: 81%
Barometro: 1033 hPa
Nuvole: parzialmente nuvoloso
Visibilità: 8 km
Dettaglio nuvole: Molto nuvoloso 1067 m
parzialmente nuvoloso 1524 m
2023/02/06 12:55 LIPL 061255Z 10007KT 8000 BKN035 SCT050 04/01 Q1033
LIMP - Parma, Italy
Distanza dalla stazione: SO 49km
Dati ricevuti: Mon, 06-Feb-2023 13:50
Poco nuvoloso
Poco nuvoloso
 Vento da ESE
Vento: ESE 11 km/h
Temperatura: 7°C
Temperatura del vento: 5°C
P.to di Rugiada: -3°C
Umidità: 49%
Barometro: 1033 hPa
Nuvole: Poco nuvoloso
Visibilità: 10 km
Dettaglio nuvole: Poco nuvoloso 1219 m
2023/02/06 12:50 LIMP 061250Z 11006KT 050V150 9999 FEW040 07/M03 Q1033
 
LIMS - Piacenza (it-Afb, Italy
Distanza dalla stazione: OSO 81km
Dati ricevuti: Mon, 06-Feb-2023 13:55
Poco nuvoloso
Poco nuvoloso
 Vento da ESE
Vento: ESE 15 km/h
Temperatura: 7°C
Temperatura del vento: 4°C
P.to di Rugiada: 0°C
Umidità: 61%
Barometro: 1032 hPa
Nuvole: Poco nuvoloso
Visibilità: 10 km
Dettaglio nuvole: Poco nuvoloso 914 m
2023/02/06 12:55 LIMS 061255Z 11008KT 9999 FEW030 07/M00 Q1032
LIPF - Ferrara (aut), Italy
Distanza dalla stazione: ESE 84km
Dati ricevuti: Mon, 06-Feb-2023 13:55
Molto nuvoloso
Molto nuvoloso
 Vento da SSE
Vento: SSE 6 km/h
Temperatura: 7°C
P.to di Rugiada: -1°C
Umidità: 57%
Barometro: 1034 hPa
Nuvole: Molto nuvoloso
Visibilità: 10 km
Dettaglio nuvole: Poco nuvoloso 914 m
Molto nuvoloso 1219 m
2023/02/06 12:55 LIPF 061255Z 15003KT 9999 FEW030 BKN040 07/M01 Q1034
 
LIPE - Bologna/Borgo (a, Italy
Distanza dalla stazione: SE 88km
Dati ricevuti: Mon, 06-Feb-2023 14:20
Molto nuvoloso
Molto nuvoloso
 Vento da E
Vento: E 15 km/h
Temperatura: 6°C
Temperatura del vento: 3°C
P.to di Rugiada: -4°C
Umidità: 49%
Barometro: 1033 hPa
Nuvole: Molto nuvoloso
Visibilità: 10 km
Dettaglio nuvole: Poco nuvoloso 1219 m
Molto nuvoloso 1524 m
2023/02/06 13:20 LIPE 061320Z 09008KT 9999 FEW040 BKN050 06/M04 Q1033
LIPU - Padova (civ/It-A, Italy
Distanza dalla stazione: ENE 93km
Dati ricevuti: Sun, 05-Feb-2023 15:50
Non attivo
Molto nuvoloso
Molto nuvoloso
 Vento da SSE
Vento: SSE 11 km/h
Temperatura: 6°C
Temperatura del vento: 4°C
P.to di Rugiada: 0°C
Umidità: 66%
Barometro: 1032 hPa
Nuvole: Molto nuvoloso
Visibilità: 10 km
Dettaglio nuvole: Molto nuvoloso 1067 m
2023/02/05 14:50 LIPU 051450Z 15006KT 9999 BKN035 06/00 Q1032
 
LIME - Bergamo/Orio Ser, Italy
Distanza dalla stazione: NO 95km
Dati ricevuti: Mon, 06-Feb-2023 14:20
Molto nuvoloso
Molto nuvoloso
 Vento da SE
Vento: SE 13 km/h
Temperatura: 4°C
Temperatura del vento: 1°C
P.to di Rugiada: -1°C
Umidità: 70%
Barometro: 1032 hPa
Nuvole: Molto nuvoloso
Visibilità: 10 km
Dettaglio nuvole: Molto nuvoloso 762 m
2023/02/06 13:20 LIME 061320Z 13007KT 9999 BKN025 04/M01 Q1032 NOSIG
LIMT - Cisa Pass, Italy
Distanza dalla stazione: SO 103km
Dati ricevuti: Mon, 23-Sep-2019 13:55
Non attivo
Nebbia
Nebbia
 Vento da calm
Vento: Calma
Temperatura: 10°C
P.to di Rugiada: 10°C
Umidità: 100%
Barometro: 1014 hPa
Sommario: Nebbia
Visibilità: 0 km
2019/09/23 11:55 LIMT 231155Z 00000KT 0000 FG VV/// 10/10 Q1014 RMK MON INVIS VAL INVIS VIS MIN 0000
 
LIVC - Cimone Mountain, Italy
Distanza dalla stazione: S 108km
Dati ricevuti: Mon, 06-Feb-2023 13:55

 Vento da variabile
Vento: variabile 0 km/h
2023/02/06 12:55 LIVC 061255Z AUTO /////KT //// ///// Q////
LIVP - Paganella Mounta, Italy
Distanza dalla stazione: NNE 112km
Dati ricevuti: Mon, 06-Feb-2023 13:55
parzialmente nuvoloso
parzialmente nuvoloso
 Vento da N
Vento: N 17 km/h
Temperatura: -8°C
Temperatura del vento: -14°C
P.to di Rugiada: -12°C
Umidità: 73%
Barometro: 1023 hPa
Nuvole: parzialmente nuvoloso
Visibilità: 10 km
2023/02/06 12:55 LIVP 061255Z 01009KT 9999 2000S NSC M08/M12 Q1023
 
LIML - Milano/Linate, Italy
Distanza dalla stazione: ONO 115km
Dati ricevuti: Mon, 06-Feb-2023 14:20
Molto nuvoloso
Molto nuvoloso
 Vento da SSE
Vento: SSE 7 km/h
Temperatura: 6°C
Temperatura del vento: 4°C
P.to di Rugiada: -2°C
Umidità: 57%
Barometro: 1032 hPa
Nuvole: Molto nuvoloso
Visibilità: 10 km
Dettaglio nuvole: Poco nuvoloso 914 m
Molto nuvoloso 1524 m
2023/02/06 13:20 LIML 061320Z 16004KT 080V210 9999 FEW030 BKN050 06/M02 Q1032 NOSIG
LIPS - Istrana (it-Afb), Italy
Distanza dalla stazione: ENE 123km
Dati ricevuti: Mon, 06-Feb-2023 13:55
Coperto
Coperto
 Vento da variabile
Vento: variabile 0 km/h
Temperatura: 4°C
P.to di Rugiada: -2°C
Umidità: 65%
Barometro: 1034 hPa
Nuvole: Coperto
Visibilità: 10 km
Dettaglio nuvole: Coperto 1067 m
2023/02/06 12:55 LIPS 061255Z /////KT 9999 OVC035 04/M02 Q1034
 
LIPH - Treviso(Civ/It-A, Italy
Distanza dalla stazione: ENE 127km
Dati ricevuti: Mon, 06-Feb-2023 14:20
Molto nuvoloso
Molto nuvoloso
 Vento da ENE
Vento: ENE 9 km/h
Temperatura: 4°C
Temperatura del vento: 2°C
P.to di Rugiada: -3°C
Umidità: 61%
Barometro: 1034 hPa
Nuvole: Molto nuvoloso
Visibilità: 10 km
Dettaglio nuvole: Molto nuvoloso 914 m
2023/02/06 13:20 LIPH 061320Z 07005KT 020V110 9999 BKN030 04/M03 Q1034
LIPZ - Venezia/Tessera, Italy
Distanza dalla stazione: ENE 133km
Dati ricevuti: Mon, 06-Feb-2023 14:20
Molto nuvoloso
Molto nuvoloso
 Vento da E
Vento: E 13 km/h
Temperatura: 4°C
Temperatura del vento: 1°C
P.to di Rugiada: -2°C
Umidità: 65%
Barometro: 1034 hPa
Nuvole: Molto nuvoloso
Visibilità: 10 km
Dettaglio nuvole: parzialmente nuvoloso 914 m
Molto nuvoloso 1219 m
2023/02/06 13:20 LIPZ 061320Z 10007KT 9999 SCT030 BKN040 04/M02 Q1034 NOSIG
 
LIQW - Sarzana/Luni, Italy
Distanza dalla stazione: SSO 135km
Dati ricevuti: Mon, 06-Feb-2023 13:55
Sereno
Sereno
 Vento da SSE
Vento: SSE 13 km/h
Temperatura: 9°C
Temperatura del vento: 7°C
P.to di Rugiada: -4°C
Umidità: 40%
Barometro: 1030 hPa
Sommario: Sereno
Visibilità: superiore a 10 km
2023/02/06 12:55 LIQW 061255Z 16007KT CAVOK 09/M04 Q1030
LIVR - Rolle Pass, Italy
Distanza dalla stazione: NE 150km
Dati ricevuti: Mon, 06-Feb-2023 13:55
Sereno
Sereno
 Vento da ESE
Vento: ESE 11 km/h
Temperatura: -7°C
Temperatura del vento: -12°C
P.to di Rugiada: -9°C
Umidità: 86%
Barometro: 1023 hPa
Sommario: Sereno
Visibilità: superiore a 10 km
2023/02/06 12:55 LIVR 061255Z 12006KT CAVOK M07/M09 Q1023
 
LIPC - Cervia (it-Afb), Italy
Dati ricevuti: Mon, 06-Feb-2023 13:55
Sereno
Sereno
 Vento da E
Vento: E 24 km/h
Temperatura: 7°C
Temperatura del vento: 3°C
P.to di Rugiada: -3°C
Umidità: 49%
Barometro: 1033 hPa
Sommario: Sereno
Visibilità: superiore a 10 km
2023/02/06 12:55 LIPC 061255Z 09013KT CAVOK 07/M03 Q1033
LIPR - Rimini (civ/It-A, Italy
Dati ricevuti: Mon, 06-Feb-2023 14:20
Sereno
Sereno
 Vento da ENE
Vento: ENE 19 km/h
Temperatura: 6°C
Temperatura del vento: 3°C
P.to di Rugiada: -5°C
Umidità: 46%
Barometro: 1033 hPa
Sommario: Sereno
Visibilità: superiore a 10 km
2023/02/06 13:20 LIPR 061320Z 06010KT 030V090 CAVOK 06/M05 Q1033
 
LIPK - Forli (civ/It-Af, Italy
Distanza dalla stazione: SE 154km
Dati ricevuti: Mon, 06-Feb-2023 13:50
Sereno
Sereno
 Vento da E
Vento: E 19 km/h
Temperatura: 6°C
Temperatura del vento: 3°C
P.to di Rugiada: -5°C
Umidità: 46%
Barometro: 1033 hPa
Sommario: Sereno
Visibilità: superiore a 10 km
2023/02/06 12:50 LIPK 061250Z 08010KT CAVOK 06/M05 Q1033
LIRX - Monte Calamita, Italy
Dati ricevuti: Mon, 06-Feb-2023 13:55
Sereno
Sereno
 Vento da NNE
Vento: NNE 22 km/h
Temperatura: 6°C
Temperatura del vento: 2°C
P.to di Rugiada: -6°C
Umidità: 42%
Barometro: 1027 hPa
Sommario: Sereno
Visibilità: superiore a 10 km
2023/02/06 12:55 LIRX 061255Z 03012KT CAVOK 06/M06 Q1027
 
LIVM - Punta Marina/Rav, Italy
Dati ricevuti: Mon, 06-Feb-2023 13:55
Sereno
Sereno
 Vento da E
Vento: E 20 km/h
Temperatura: 7°C
Temperatura del vento: 4°C
P.to di Rugiada: -3°C
Umidità: 49%
Barometro: 1035 hPa
Sommario: Sereno
Visibilità: superiore a 10 km
2023/02/06 12:55 LIVM 061255Z 09011KT CAVOK 07/M03 Q1035
LIMV - Passo dei Giovi, Italy
Distanza dalla stazione: OSO 152km
Dati ricevuti: Mon, 06-Feb-2023 13:55
Poco nuvoloso
Poco nuvoloso
 Vento da variabile
Vento: variabile 0 km/h
Temperatura: 5°C
P.to di Rugiada: -5°C
Umidità: 49%
Barometro: 1029 hPa
Nuvole: Poco nuvoloso
Visibilità: 10 km
Dettaglio nuvole: Poco nuvoloso 457 m
2023/02/06 12:55 LIMV 061255Z /////KT 9999 FEW015 05/M05 Q1029
 
LIPB - Bolzano(Civ/It-A, Italy
Distanza dalla stazione: NNE 152km
Dati ricevuti: Mon, 06-Feb-2023 13:50
Sereno
Sereno
 Vento da SE
Vento: SE 13 km/h
Temperatura: 7°C
Temperatura del vento: 5°C
P.to di Rugiada: -3°C
Umidità: 49%
Barometro: 1030 hPa
Sommario: Sereno
Visibilità: superiore a 10 km
2023/02/06 12:50 LIPB 061250Z 14007KT CAVOK 07/M03 Q1030
LIVD - Bolzano-Dobbiaco, Italy
Dati ricevuti: Mon, 06-Feb-2023 13:55
Poco nuvoloso
Poco nuvoloso
 Vento da E
Vento: E 24 km/h
Temperatura: -1°C
Temperatura del vento: -7°C
P.to di Rugiada: -12°C
Umidità: 43%
Barometro: 1027 hPa
Nuvole: Poco nuvoloso
Visibilità: 10 km
Dettaglio nuvole: Poco nuvoloso 1524 m
2023/02/06 12:55 LIVD 061255Z 09013KT 9999 FEW050 M01/M12 Q1027
 
LIVE - Bolzano-Passo Resia, Italy
Distanza dalla stazione: NO 160km
Dati ricevuti: Mon, 06-Feb-2023 13:55
Sereno
Sereno
 Vento da NNE
Vento: NNE 19 km/h, Raffica: 41 km/h
Temperatura: 1°C
Temperatura del vento: -4°C
P.to di Rugiada: -14°C
Umidità: 32%
Barometro: 1027 hPa
Sommario: Sereno
Visibilità: superiore a 10 km
2023/02/06 12:55 LIVE 061255Z 02010G22KT CAVOK 01/M14 Q1027
LIMH - Aosta-Pian Rosa (mtn T, Italy
Dati ricevuti: Mon, 06-Feb-2023 13:55

 Vento da ENE
Vento: ENE 20 km/h
Temperatura: -10°C
Temperatura del vento: -18°C
P.to di Rugiada: -22°C
Umidità: 37%
Barometro: 1020 hPa
2023/02/06 12:55 LIMH 061255Z AUTO 06011KT //// M10/M22 Q1020
 
LIMZ - Cuneo/Levaldigi, Italy
Dati ricevuti: Mon, 06-Feb-2023 14:20
Sereno
Sereno
 Vento da NE
Vento: NE 11 km/h
Temperatura: 7°C
Temperatura del vento: 5°C
P.to di Rugiada: -1°C
Umidità: 57%
Barometro: 1029 hPa
Nuvole: Sereno
Visibilità: 10 km
2023/02/06 13:20 LIMZ 061320Z AUTO 05006KT 020V090 9999 NCD 07/M01 Q1029
LIMK - Torino-Bric Della Croce, Italy
Dati ricevuti: Mon, 06-Feb-2023 13:55
Molto nuvoloso
Molto nuvoloso
 Vento da N
Vento: N 4 km/h
Temperatura: 2°C
P.to di Rugiada: 0°C
Umidità: 87%
Barometro: 1029 hPa
Nuvole: Molto nuvoloso
Visibilità: 10 km
Dettaglio nuvole: parzialmente nuvoloso 914 m
Molto nuvoloso 1219 m
2023/02/06 12:55 LIMK 061255Z 35002KT 9999 SCT030 BKN040 02/00 Q1029
 
LIMN - Novara-Cameri (it-Afb), Italy
Dati ricevuti: Mon, 06-Feb-2023 13:55
Molto nuvoloso
Molto nuvoloso
 Vento da SSE
Vento: SSE 7 km/h
Temperatura: 6°C
Temperatura del vento: 4°C
P.to di Rugiada: -2°C
Umidità: 57%
Barometro: 1031 hPa
Nuvole: Molto nuvoloso
Visibilità: 10 km
Dettaglio nuvole: Poco nuvoloso 762 m
Molto nuvoloso 1524 m
2023/02/06 12:55 LIMN 061255Z 16004KT 090V210 9999 FEW025 BKN050 06/M02 Q1031
LIPA - Pordenone-Aviano (it/Us-Af, Italy
Dati ricevuti: Mon, 06-Feb-2023 13:55
parzialmente nuvoloso
parzialmente nuvoloso
 Vento da OSO
Vento: OSO 4 km/h
Temperatura: 3°C
P.to di Rugiada: -3°C
Umidità: 65%
Barometro: 1033 hPa
Nuvole: parzialmente nuvoloso
Visibilità: 10 km
Dettaglio nuvole: parzialmente nuvoloso 1524 m
parzialmente nuvoloso 3048 m
2023/02/06 12:55 LIPA 061255Z 25002KT 9999 SCT050 SCT100 03/M03 Q1033
 
LIPI - Udine-Rivolto (it-Afb), Italy
Dati ricevuti: Mon, 06-Feb-2023 13:55
parzialmente nuvoloso
parzialmente nuvoloso
 Vento da ESE
Vento: ESE 4 km/h
Temperatura: 4°C
P.to di Rugiada: -6°C
Umidità: 48%
Barometro: 1034 hPa
Nuvole: parzialmente nuvoloso
Visibilità: 10 km
Dettaglio nuvole: parzialmente nuvoloso 1067 m
parzialmente nuvoloso 3048 m
2023/02/06 12:55 LIPI 061255Z 12002KT 9999 SCT035 SCT100 04/M06 Q1034
LIVO - Udine-Tarvisio, Italy
Dati ricevuti: Mon, 06-Feb-2023 13:55
Sereno
Sereno
 Vento da calm
Vento: Calma
Temperatura: 0°C
P.to di Rugiada: -7°C
Umidità: 60%
Barometro: 1029 hPa
Sommario: Sereno
Visibilità: superiore a 10 km
2023/02/06 12:55 LIVO 061255Z 00000KT CAVOK 00/M07 Q1029
 
LIPQ - Trieste-Ronchi Dei Legionari, Italy
Dati ricevuti: Mon, 06-Feb-2023 14:20
Molto nuvoloso
Molto nuvoloso
 Vento da variabile
Vento: variabile 4 km/h
Temperatura: 6°C
P.to di Rugiada: -6°C
Umidità: 42%
Barometro: 1034 hPa
Nuvole: Molto nuvoloso
Visibilità: 10 km
Dettaglio nuvole: Molto nuvoloso 1494 m
2023/02/06 13:20 LIPQ 061320Z AUTO VRB02KT 9999 BKN049/// 06/M06 Q1034
LIVT - Trieste, Italy
Dati ricevuti: Mon, 06-Feb-2023 13:55
Sereno
Sereno
 Vento da ENE
Vento: ENE 9 km/h
Temperatura: 5°C
Temperatura del vento: 3°C
P.to di Rugiada: -10°C
Umidità: 33%
Barometro: 1034 hPa
Sommario: Sereno
Visibilità: superiore a 10 km
2023/02/06 12:55 LIVT 061255Z 07005KT 020V140 CAVOK 05/M10 Q1034
 
LIRQ - Firenze/Peretola, Italy
Dati ricevuti: Mon, 06-Feb-2023 14:20
Sereno
Sereno
 Vento da ENE
Vento: ENE 22 km/h
Temperatura: 8°C
Temperatura del vento: 4°C
P.to di Rugiada: -6°C
Umidità: 37%
Barometro: 1031 hPa
Sommario: Sereno
Visibilità: superiore a 10 km
2023/02/06 13:20 LIRQ 061320Z 06012KT CAVOK 08/M06 Q1031
LIRP - Pisa (civ/It-Afb, Italy
Dati ricevuti: Mon, 06-Feb-2023 14:15
Sereno
Sereno
 Vento da E
Vento: E 22 km/h
Temperatura: 9°C
Temperatura del vento: 6°C
P.to di Rugiada: -9°C
Umidità: 27%
Barometro: 1030 hPa
Sommario: Sereno
Visibilità: superiore a 10 km
2023/02/06 13:15 LIRP 061315Z 08012KT CAVOK 09/M09 Q1030 NOSIG
 
LIRA - Roma-Ciampino(It-Afb/, Italy
Dati ricevuti: Mon, 06-Feb-2023 14:20
Sereno
Sereno
 Vento da NE
Vento: NE 17 km/h
Temperatura: 9°C
Temperatura del vento: 7°C
P.to di Rugiada: -10°C
Umidità: 25%
Barometro: 1026 hPa
Sommario: Sereno
Visibilità: superiore a 10 km
2023/02/06 13:20 LIRA 061320Z 04009KT CAVOK 09/M10 Q1026
LIRU - Rome/Urbe (it-Af, Italy
Dati ricevuti: Mon, 06-Feb-2023 13:50
Sereno
Sereno
 Vento da NNE
Vento: NNE 19 km/h
Temperatura: 10°C
Temperatura del vento: 7°C
P.to di Rugiada: -8°C
Umidità: 28%
Barometro: 1027 hPa
Sommario: Sereno
Visibilità: superiore a 10 km
2023/02/06 12:50 LIRU 061250Z 02010KT 340V050 CAVOK 10/M08 Q1027
 
LIRG - Roma-Guidonia (it-Afb, Italy
Dati ricevuti: Mon, 06-Feb-2023 13:55
Sereno
Sereno
 Vento da ENE
Vento: ENE 24 km/h
Temperatura: 10°C
Temperatura del vento: 7°C
P.to di Rugiada: -7°C
Umidità: 30%
Barometro: 1027 hPa
Sommario: Sereno
Visibilità: superiore a 10 km
2023/02/06 12:55 LIRG 061255Z 06013KT CAVOK 10/M07 Q1027
LIRE - Roma-Pratica Di Mare(, Italy
Dati ricevuti: Mon, 06-Feb-2023 13:55
Sereno
Sereno
 Vento da SE
Vento: SE 6 km/h
Temperatura: 11°C
P.to di Rugiada: -7°C
Umidità: 28%
Barometro: 1027 hPa
Sommario: Sereno
Visibilità: superiore a 10 km
2023/02/06 12:55 LIRE 061255Z 14003KT CAVOK 11/M07 Q1027
 
LIRF - Roma-Fiumicino, Italy
Dati ricevuti: Mon, 06-Feb-2023 14:20
Sereno
Sereno
 Vento da NNE
Vento: NNE 11 km/h
Temperatura: 10°C
Temperatura del vento: 8°C
P.to di Rugiada: -7°C
Umidità: 30%
Barometro: 1027 hPa
Sommario: Sereno
Visibilità: superiore a 10 km
2023/02/06 13:20 LIRF 061320Z 02006KT 340V060 CAVOK 10/M07 Q1027 NOSIG
LIRL - Latina (it-Afb), Italy
Dati ricevuti: Mon, 06-Feb-2023 13:55
Sereno
Sereno
 Vento da O
Vento: O 6 km/h
Temperatura: 10°C
P.to di Rugiada: -7°C
Umidità: 30%
Barometro: 1027 hPa
Sommario: Sereno
Visibilità: superiore a 10 km
2023/02/06 12:55 LIRL 061255Z 27003KT CAVOK 10/M07 Q1027
 
LIRH - Frosinone (it-Af, Italy
Dati ricevuti: Mon, 06-Feb-2023 13:55
Sereno
Sereno
 Vento da SSO
Vento: SSO 6 km/h
Temperatura: 9°C
P.to di Rugiada: -5°C
Umidità: 37%
Barometro: 1027 hPa
Sommario: Sereno
Visibilità: superiore a 10 km
2023/02/06 12:55 LIRH 061255Z 21003KT CAVOK 09/M05 Q1027
LIQN - Rieti, Italy
Dati ricevuti: Mon, 06-Feb-2023 13:50
Sereno
Sereno
 Vento da variabile
Vento: variabile 0 km/h
Temperatura: 6°C
P.to di Rugiada: -9°C
Umidità: 34%
Barometro: 1028 hPa
Sommario: Sereno
Visibilità: superiore a 10 km
2023/02/06 12:50 LIQN 061250Z /////KT CAVOK 06/M09 Q1028
 
LIRK - Rieti-Monte Terminillo, Italy
Dati ricevuti: Mon, 06-Feb-2023 13:55

 Vento da E
Vento: E 20 km/h, Raffica: 41 km/h
Temperatura: -10°C
Temperatura del vento: -18°C
P.to di Rugiada: -12°C
Umidità: 85%
Barometro: 1020 hPa
2023/02/06 12:55 LIRK 061255Z AUTO 09011G22KT //// M10/M12 Q1020
LIRV - Viterbo (it-Mil), Italy
Dati ricevuti: Mon, 06-Feb-2023 13:55
Sereno
Sereno
 Vento da NNE
Vento: NNE 24 km/h
Temperatura: 6°C
Temperatura del vento: 2°C
P.to di Rugiada: -5°C
Umidità: 46%
Barometro: 1028 hPa
Sommario: Sereno
Visibilità: superiore a 10 km
2023/02/06 12:55 LIRV 061255Z 03013KT CAVOK 06/M05 Q1028
 
LIQO - Grosseto-Monte Argentario, Italy
Dati ricevuti: Wed, 09-Nov-2022 09:55
Non attivo

 Vento da variabile
Vento: variabile 0 km/h
2022/11/09 08:55 LIQO 090855Z AUTO /////KT //// ///// Q////
LIRZ - Perugia, Italy
Dati ricevuti: Mon, 06-Feb-2023 14:20
Sereno
Sereno
 Vento da NE
Vento: NE 30 km/h
Temperatura: 6°C
Temperatura del vento: 2°C
P.to di Rugiada: -7°C
Umidità: 39%
Barometro: 1029 hPa
Nuvole: Sereno
Visibilità: 10 km
2023/02/06 13:20 LIRZ 061320Z AUTO 04016KT 9999 NCD 06/M07 Q1029
 
LIBP - Pescara, Italy
Dati ricevuti: Mon, 06-Feb-2023 14:20
Coperto
Coperto
 Vento da N
Vento: N 13 km/h
Temperatura: 5°C
Temperatura del vento: 2°C
P.to di Rugiada: -5°C
Umidità: 49%
Barometro: 1032 hPa
Nuvole: Coperto
Visibilità: 10 km
Dettaglio nuvole: Coperto 1341 m
2023/02/06 13:20 LIBP 061320Z AUTO 36007KT 310V030 9999 OVC044/// 05/M05 Q1032
LIRM - Caserta-Grazzanise (it-A, Italy
Dati ricevuti: Mon, 06-Feb-2023 13:55
parzialmente nuvoloso
parzialmente nuvoloso
 Vento da NNO
Vento: NNO 22 km/h
Temperatura: 8°C
Temperatura del vento: 4°C
P.to di Rugiada: -13°C
Umidità: 21%
Barometro: 1028 hPa
Nuvole: parzialmente nuvoloso
Visibilità: 10 km
Dettaglio nuvole: parzialmente nuvoloso 914 m
parzialmente nuvoloso 2134 m
2023/02/06 12:55 LIRM 061255Z 34012KT 9999 SCT030 SCT070 08/M13 Q1028
 
LIRS - Grosseto (it-Afb, Italy
Dati ricevuti: Mon, 06-Feb-2023 13:55
Sereno
Sereno
 Vento da NE
Vento: NE 24 km/h
Temperatura: 8°C
Temperatura del vento: 4°C
P.to di Rugiada: -7°C
Umidità: 34%
Barometro: 1029 hPa
Sommario: Sereno
Visibilità: superiore a 10 km
2023/02/06 12:55 LIRS 061255Z 04013KT CAVOK 08/M07 Q1029
LIRN - Napoli-Capodichino, Italy
Dati ricevuti: Mon, 06-Feb-2023 14:20
Molto nuvoloso
Molto nuvoloso
 Vento da NE
Vento: NE 30 km/h
Temperatura: 6°C
Temperatura del vento: 2°C
P.to di Rugiada: -6°C
Umidità: 42%
Barometro: 1028 hPa
Nuvole: Molto nuvoloso
Visibilità: 10 km
Dettaglio nuvole: Molto nuvoloso 1219 m
2023/02/06 13:20 LIRN 061320Z 05016KT 9999 BKN040 06/M06 Q1028 NOSIG
 
LIVF - Pesaro Urbino-Frontone, Italy
Dati ricevuti: Mon, 06-Feb-2023 13:55
parzialmente nuvoloso
parzialmente nuvoloso
 Vento da ENE
Vento: ENE 9 km/h
Temperatura: 0°C
Temperatura del vento: -3°C
P.to di Rugiada: -4°C
Umidità: 75%
Barometro: 1028 hPa
Nuvole: parzialmente nuvoloso
Visibilità: 10 km
Dettaglio nuvole: Poco nuvoloso 792 m
parzialmente nuvoloso 975 m
2023/02/06 12:55 LIVF 061255Z 06005KT 360V120 9999 FEW026 SCT032 00/M04 Q1028
LIQC - Capri, Italy
Dati ricevuti: Mon, 06-Feb-2023 13:55
Sereno
Sereno
 Vento da E
Vento: E 9 km/h
Temperatura: 7°C
Temperatura del vento: 6°C
P.to di Rugiada: -3°C
Umidità: 49%
Barometro: 1027 hPa
Sommario: Sereno
Visibilità: superiore a 10 km
2023/02/06 12:55 LIQC 061255Z 08005KT CAVOK 07/M03 Q1027 RMK SKC QUK 3 QUL 1 NE VIS MAR 30 KM VIS MIN 9999
 
LIPY - Ancona-Falconara (it-Af, Italy
Dati ricevuti: Mon, 06-Feb-2023 14:20
Poco nuvoloso
Poco nuvoloso
 Vento da ENE
Vento: ENE 11 km/h
Temperatura: 5°C
Temperatura del vento: 2°C
P.to di Rugiada: -5°C
Umidità: 49%
Barometro: 1032 hPa
Nuvole: Poco nuvoloso
Visibilità: 10 km
Dettaglio nuvole: Poco nuvoloso 1250 m
2023/02/06 13:20 LIPY 061320Z AUTO 06006KT 040V110 9999 FEW041/// 05/M05 Q1032
LIRX - Monte Calamita, Italy
Dati ricevuti: Mon, 06-Feb-2023 13:55
Sereno
Sereno
 Vento da NNE
Vento: NNE 22 km/h
Temperatura: 6°C
Temperatura del vento: 2°C
P.to di Rugiada: -6°C
Umidità: 42%
Barometro: 1027 hPa
Sommario: Sereno
Visibilità: superiore a 10 km
2023/02/06 12:55 LIRX 061255Z 03012KT CAVOK 06/M06 Q1027
 
LIEB - Cape Bellavista, Italy
Dati ricevuti: Mon, 06-Feb-2023 13:55
Leggera pioggia, Molto nuvoloso
Leggera pioggia, Molto nuvoloso
 Vento da N
Vento: N 19 km/h
Temperatura: 8°C
Temperatura del vento: 4°C
P.to di Rugiada: 5°C
Umidità: 82%
Barometro: 1026 hPa
Sommario: Leggera pioggia
Nuvole: Molto nuvoloso
Visibilità: 7 km
Dettaglio nuvole: Poco nuvoloso 305 m
parzialmente nuvoloso 610 m
Molto nuvoloso 762 m
2023/02/06 12:55 LIEB 061255Z 35010KT 7000 -RA FEW010 SCT020 BKN025 08/05 Q1026 RMK OVC QUK 3 QUL 0 VIS MAR 7 KM MON INVIS VIS MIN 7000
LIEC - Cape Carbonara, Italy
Dati ricevuti: Mon, 06-Feb-2023 13:55
Light drizzle, Molto nuvoloso
Light drizzle, Molto nuvoloso
 Vento da ESE
Vento: ESE 41 km/h
Temperatura: 9°C
Temperatura del vento: 4°C
P.to di Rugiada: 7°C
Umidità: 87%
Barometro: 1024 hPa
Sommario: Light Drizzle
Nuvole: Molto nuvoloso
Visibilità: 6 km
Dettaglio nuvole: parzialmente nuvoloso 457 m
Molto nuvoloso 762 m
2023/02/06 12:55 LIEC 061255Z 12022KT 6000 -DZ SCT015 BKN025 09/07 Q1024 RMK OVC QUK 4 QUL 0 VIS MAR 6 KM VIS MIN 6000
 
LIED - Cagliari-Decimomannu(It-A, Italy
Dati ricevuti: Mon, 06-Feb-2023 13:55
Molto nuvoloso
Molto nuvoloso
 Vento da ESE
Vento: ESE 17 km/h
Temperatura: 10°C
Temperatura del vento: 8°C
P.to di Rugiada: 9°C
Umidità: 94%
Barometro: 1023 hPa
Nuvole: Molto nuvoloso
Visibilità: 10 km
Dettaglio nuvole: Poco nuvoloso 610 m
Molto nuvoloso 853 m
2023/02/06 12:55 LIED 061255Z 12009KT 9999 FEW020 BKN028 10/09 Q1023
LIEE - Cagliari-Elmas(A, Italy
Dati ricevuti: Mon, 06-Feb-2023 14:20
Leggera pioggia, Molto nuvoloso
Leggera pioggia, Molto nuvoloso
 Vento da SE
Vento: SE 35 km/h
Temperatura: 10°C
Temperatura del vento: 6°C
P.to di Rugiada: 7°C
Umidità: 82%
Barometro: 1024 hPa
Sommario: Leggera pioggia
Nuvole: Molto nuvoloso
Visibilità: 8 km
Dettaglio nuvole: Poco nuvoloso 457 m
Molto nuvoloso 1372 m
2023/02/06 13:20 LIEE 061320Z 14019KT 8000 -RA FEW015 BKN045 10/07 Q1024
 
LIEO - Olbia-Costa Smeralda, Italy
Dati ricevuti: Mon, 06-Feb-2023 14:20
Leggera pioggia, Molto nuvoloso
Leggera pioggia, Molto nuvoloso
 Vento da ENE
Vento: ENE 22 km/h
Temperatura: 8°C
Temperatura del vento: 4°C
P.to di Rugiada: 7°C
Umidità: 93%
Barometro: 1027 hPa
Sommario: Leggera pioggia
Nuvole: Molto nuvoloso
Visibilità: 6 km
Dettaglio nuvole: parzialmente nuvoloso 457 m
Molto nuvoloso 762 m
2023/02/06 13:20 LIEO 061320Z 06012KT 6000 -RA SCT015 BKN025 08/07 Q1027 RERA
LIEA - Alghero, Italy
Dati ricevuti: Mon, 06-Feb-2023 14:20
parzialmente nuvoloso
parzialmente nuvoloso
 Vento da ENE
Vento: ENE 24 km/h
Temperatura: 11°C
P.to di Rugiada: 6°C
Umidità: 72%
Barometro: 1024 hPa
Nuvole: parzialmente nuvoloso
Visibilità: 10 km
Dettaglio nuvole: parzialmente nuvoloso 975 m
2023/02/06 13:20 LIEA 061320Z 07013KT 9999 SCT032 11/06 Q1024
 
LICA - Catanzaro-Lamezia Terme, Italy
Dati ricevuti: Mon, 06-Feb-2023 14:20
Sereno
Sereno
 Vento da variabile
Vento: variabile 9 km/h
Temperatura: 9°C
Temperatura del vento: 7°C
P.to di Rugiada: -8°C
Umidità: 29%
Barometro: 1025 hPa
Nuvole: Sereno
Visibilità: 10 km
2023/02/06 13:20 LICA 061320Z AUTO VRB05KT 9999 NCD 09/M08 Q1025
LIBQ - Cosenza-Monte Scuro, Italy
Dati ricevuti: Mon, 06-Feb-2023 13:55
Neve leggera, Nebbia gelata, Nebbia
Neve leggera, Nebbia gelata, Nebbia
 Vento da NE
Vento: NE 30 km/h
Temperatura: -10°C
Temperatura del vento: -19°C
P.to di Rugiada: -11°C
Umidità: 92%
Barometro: 1017 hPa
Sommario: Neve leggera, Nebbia gelata, Nebbia
Visibilità: 0 km
2023/02/06 12:55 LIBQ 061255Z 04016KT 0000 -SN FZFG VV/// M10/M11 Q1017
 
LICR - Reggio Calabria, Italy
Dati ricevuti: Mon, 06-Feb-2023 14:20
Molto nuvoloso
Molto nuvoloso
 Vento da N
Vento: N 22 km/h
Temperatura: 9°C
Temperatura del vento: 6°C
P.to di Rugiada: -3°C
Umidità: 43%
Barometro: 1026 hPa
Nuvole: Molto nuvoloso
Visibilità: 10 km
Dettaglio nuvole: Molto nuvoloso 1615 m
2023/02/06 13:20 LICR 061320Z AUTO 36012KT 9999 BKN053/// 09/M03 Q1026
LIBV - Bari-Gioia Del Colle, Italy
Dati ricevuti: Mon, 06-Feb-2023 13:55
Neve leggera, Foschia, Coperto
Neve leggera, Foschia, Coperto
 Vento da NNO
Vento: NNO 17 km/h
Temperatura: 2°C
Temperatura del vento: -2°C
P.to di Rugiada: 0°C
Umidità: 87%
Barometro: 1024 hPa
Sommario: Neve leggera, Foschia
Nuvole: Coperto
Visibilità: 4 km
Dettaglio nuvole: Coperto 762 m
2023/02/06 12:55 LIBV 061255Z 34009KT 3500 -SN BR OVC025 02/00 Q1024
 
LIBD - Bari-Palese Macchie, Italy
Dati ricevuti: Mon, 06-Feb-2023 14:20
Molto nuvoloso
Molto nuvoloso
 Vento da N
Vento: N 17 km/h
Temperatura: 4°C
Temperatura del vento: 0°C
P.to di Rugiada: -6°C
Umidità: 48%
Barometro: 1027 hPa
Nuvole: Molto nuvoloso
Visibilità: 10 km
Dettaglio nuvole: Molto nuvoloso 1372 m
2023/02/06 13:20 LIBD 061320Z 35009KT 310V030 9999 BKN045 04/M06 Q1027
LIBR - Brindisi-Casale, Italy
Dati ricevuti: Mon, 06-Feb-2023 14:20
parzialmente nuvoloso
parzialmente nuvoloso
 Vento da NE
Vento: NE 33 km/h
Temperatura: 4°C
Temperatura del vento: -2°C
P.to di Rugiada: -6°C
Umidità: 48%
Barometro: 1025 hPa
Nuvole: parzialmente nuvoloso
Visibilità: 10 km
Dettaglio nuvole: parzialmente nuvoloso 1219 m
2023/02/06 13:20 LIBR 061320Z 04018KT 9999 SCT040 04/M06 Q1025
 
LIRT - Trevico, Italy
Dati ricevuti: Mon, 06-Feb-2023 13:55
Nebbia gelata
Nebbia gelata
 Vento da N
Vento: N 20 km/h
Temperatura: -5°C
Temperatura del vento: -12°C
P.to di Rugiada: -7°C
Umidità: 86%
Barometro: 1023 hPa
Sommario: Nebbia gelata
Visibilità: 0 km
2023/02/06 12:55 LIRT 061255Z 36011KT 0000 FZFG VV/// M05/M07 Q1023
LICB - Comiso, Italy
Dati ricevuti: Mon, 06-Feb-2023 14:20
Sereno
Sereno
 Vento da variabile
Vento: variabile 4 km/h
Temperatura: 11°C
P.to di Rugiada: -6°C
Umidità: 30%
Barometro: 1023 hPa
Nuvole: Sereno
Visibilità: 10 km
2023/02/06 13:20 LICB 061320Z AUTO VRB02KT 9999 NCD 11/M06 Q1023
 
LICL - Gela, Italy
Dati ricevuti: Mon, 06-Feb-2023 13:55
parzialmente nuvoloso
parzialmente nuvoloso
 Vento da OSO
Vento: OSO 11 km/h
Temperatura: 10°C
Temperatura del vento: 8°C
P.to di Rugiada: 2°C
Umidità: 58%
Barometro: 1024 hPa
Nuvole: parzialmente nuvoloso
Visibilità: 10 km
Dettaglio nuvole: parzialmente nuvoloso 701 m
2023/02/06 12:55 LICL 061255Z 24006KT 180V300 9999 SCT023 10/02 Q1024 RMK SCT QUK 1 QUL 0 VIS MAR 25 KM VIS MIN 9999
LIBN - Lecce (it-Afb), Italy
Dati ricevuti: Mon, 06-Feb-2023 13:55
Molto nuvoloso
Molto nuvoloso
 Vento da N
Vento: N 37 km/h, Raffica: 56 km/h
Temperatura: 4°C
Temperatura del vento: -2°C
P.to di Rugiada: -5°C
Umidità: 52%
Barometro: 1025 hPa
Nuvole: Molto nuvoloso
Visibilità: 10 km
Dettaglio nuvole: Poco nuvoloso 762 m
Molto nuvoloso 1524 m
2023/02/06 12:55 LIBN 061255Z 01020G30KT 9999 FEW025 BKN050 04/M05 Q1025
 
LICJ - Palermo-Punta Raisi, Italy
Dati ricevuti: Mon, 06-Feb-2023 14:20
Poco nuvoloso
Poco nuvoloso
 Vento da NE
Vento: NE 24 km/h
Temperatura: 10°C
Temperatura del vento: 7°C
P.to di Rugiada: -1°C
Umidità: 47%
Barometro: 1025 hPa
Nuvole: Poco nuvoloso
Visibilità: 10 km
Dettaglio nuvole: Poco nuvoloso 1524 m
2023/02/06 13:20 LICJ 061320Z 04013KT 9999 FEW050 10/M01 Q1025
LICZ - Catania-Sigonella (nas), Italy
Dati ricevuti: Mon, 06-Feb-2023 13:55
parzialmente nuvoloso
parzialmente nuvoloso
 Vento da variabile
Vento: variabile 0 km/h
Temperatura: 11°C
P.to di Rugiada: -6°C
Umidità: 30%
Barometro: 1023 hPa
Nuvole: parzialmente nuvoloso
Visibilità: 10 km
Dettaglio nuvole: parzialmente nuvoloso 762 m
parzialmente nuvoloso 2438 m
2023/02/06 12:55 LICZ 061255Z /////KT 9999 SCT025 SCT080 11/M06 Q1023
 
LICC - Catania-Fontanarossa, Italy
Dati ricevuti: Mon, 06-Feb-2023 14:20
Poco nuvoloso
Poco nuvoloso
 Vento da ESE
Vento: ESE 13 km/h
Temperatura: 11°C
P.to di Rugiada: -2°C
Umidità: 41%
Barometro: 1024 hPa
Nuvole: Poco nuvoloso
Visibilità: 10 km
Dettaglio nuvole: Poco nuvoloso 1219 m
2023/02/06 13:20 LICC 061320Z 12007KT 090V150 9999 FEW040 11/M02 Q1024
LICT - Trapani-Birgi (a, Italy
Dati ricevuti: Mon, 06-Feb-2023 13:55
Poco nuvoloso
Poco nuvoloso
 Vento da E
Vento: E 20 km/h
Temperatura: 10°C
Temperatura del vento: 7°C
P.to di Rugiada: 0°C
Umidità: 50%
Barometro: 1025 hPa
Nuvole: Poco nuvoloso
Visibilità: 10 km
Dettaglio nuvole: Poco nuvoloso 762 m
2023/02/06 12:55 LICT 061255Z 08011KT 9999 FEW025 10/M00 Q1025
 
LICD - Agrigento-Lampedusa, Italy
Dati ricevuti: Mon, 06-Feb-2023 14:20
Sereno
Sereno
 Vento da NE
Vento: NE 17 km/h
Temperatura: 12°C
P.to di Rugiada: 2°C
Umidità: 51%
Barometro: 1024 hPa
Nuvole: Sereno
Visibilità: 10 km
2023/02/06 13:20 LICD 061320Z AUTO 05009KT 9999 NCD 12/02 Q1024
LICG - Pantelleria(It-A, Italy
Dati ricevuti: Mon, 06-Feb-2023 13:50
Molto nuvoloso
Molto nuvoloso
 Vento da E
Vento: E 9 km/h
Temperatura: 9°C
Temperatura del vento: 7°C
P.to di Rugiada: 1°C
Umidità: 58%
Barometro: 1025 hPa
Nuvole: Molto nuvoloso
Visibilità: 10 km
Dettaglio nuvole: Molto nuvoloso 1219 m
2023/02/06 12:50 LICG 061250Z 09005KT 9999 BKN040 09/01 Q1025


METEO PILLOLE
Il più grande ciclone tropicale
Pacifico occidentale
Al culmine della sua potenza, il 12 ottobre 1979, il tifone Tip imperversa su un raggio di circa 1100 km. La pressione di 870 mb registrata nell'occhio di questo ciclone è la più bassa mai rilevata sulla Terra al livello del mare.
Share

Non seguire questo link o sarai bannato dal sito!